Time;durP1;ratioP1;P1;durP2;ratioP2;P2;SDS_P1;SDS_P2;PMS_P1;PMS_P2;Temp;Humidity;BMP_temperature;BMP_pressure;BME280_temperature;BME280_humidity;BME280_pressure;Samples;Min_cycle;Max_cycle;Signal;HPM_P1;HPM_P2
2023/12/14 00:00:10;;;;;;;;;;;;;;;17.42;66.31;99780.41;7390273;19;1155;-45
2023/12/14 00:02:38;;;;;;;;;;;;;;;17.34;66.51;99764.28;7391658;19;1384;-45
2023/12/14 00:05:07;;;;;;;;;;;;;;;17.22;66.88;99770.81;7391531;19;1863;-45
2023/12/14 00:07:38;;;;;;;;;;;;;;;17.43;65.98;99758.03;7391917;19;1191;-45
2023/12/14 00:10:07;;;;;;;;;;;;;;;17.71;65.41;99776.72;7392920;19;1262;-47
2023/12/14 00:12:36;;;;;;;;;;;;;;;17.77;65.24;99760.06;7392583;19;1207;-45
2023/12/14 00:15:04;;;;;;;;;;;;;;;17.57;65.52;99771.91;7392375;19;1298;-45
2023/12/14 00:17:33;;;;;;;;;;;;;;;17.42;66.01;99772.38;7391678;19;1409;-45
2023/12/14 00:20:01;;;;;;;;;;;;;;;17.30;65.97;99762.88;7391286;19;1414;-45
2023/12/14 00:22:29;;;;;;;;;;;;;;;16.69;66.16;99679.66;7391709;19;1417;-45
2023/12/14 00:25:00;;;;;;;;;;;;;;;17.16;66.49;99763.38;7390538;19;1548;-45
2023/12/14 00:27:29;;;;;;;;;;;;;;;17.63;65.19;99753.41;7390073;19;1832;-45
2023/12/14 00:29:57;;;;;;;;;;;;;;;17.83;64.65;99759.50;7390567;19;1524;-45
2023/12/14 00:32:25;;;;;;;;;;;;;;;17.71;64.69;99752.66;7390889;19;1198;-45
2023/12/14 00:34:53;;;;;;;;;;;;;;;17.57;65.12;99755.84;7390744;19;1467;-45
2023/12/14 00:37:22;;;;;;;;;;;;;;;17.39;65.64;99750.44;7390850;19;1332;-45
2023/12/14 00:39:50;;;;;;;;;;;;;;;17.28;65.97;99759.53;7390727;19;1218;-45
2023/12/14 00:42:21;;;;;;;;;;;;;;;17.22;66.01;99750.25;7390050;19;1517;-45
2023/12/14 00:44:49;;;;;;;;;;;;;;;17.31;65.87;99745.88;7390528;19;1200;-45
2023/12/14 00:47:15;;;;;;;;;;;;;;;17.66;65.02;99749.59;7388925;19;1849;-45
2023/12/14 00:49:43;;;;;;;;;;;;;;;17.83;64.72;99746.13;7375359;19;1459;-45
2023/12/14 00:52:12;;;;;;;;;;;;;;;17.67;64.55;99759.31;7390355;19;1427;-45
2023/12/14 00:54:40;;;;;;;;;;;;;;;17.44;65.06;99767.72;7390747;19;1258;-45
2023/12/14 00:57:08;;;;;;;;;;;;;;;17.37;65.25;99758.63;7390342;19;1324;-46
2023/12/14 00:59:40;;;;;;;;;;;;;;;17.34;65.56;99760.75;7390014;19;1535;-45
2023/12/14 01:02:08;;;;;;;;;;;;;;;17.21;65.78;99753.06;7389750;19;1176;-45
2023/12/14 01:04:36;;;;;;;;;;;;;;;17.46;64.98;99771.09;7389939;19;1435;-45
2023/12/14 01:07:05;;;;;;;;;;;;;;;17.62;65.00;99748.19;7388727;19;1842;-45
2023/12/14 01:09:33;;;;;;;;;;;;;;;17.78;64.27;99753.72;7386938;19;1785;-45
2023/12/14 01:12:02;;;;;;;;;;;;;;;17.64;64.84;99756.91;7389333;19;1530;-45
2023/12/14 01:14:30;;;;;;;;;;;;;;;16.87;65.17;99658.38;7389384;19;1375;-45
2023/12/14 01:17:01;;;;;;;;;;;;;;;17.33;65.39;99733.22;7389526;19;1366;-45
2023/12/14 01:19:29;;;;;;;;;;;;;;;17.27;65.49;99749.84;7393336;19;1496;-45
2023/12/14 01:21:58;;;;;;;;;;;;;;;17.19;65.76;99742.56;7395815;19;1480;-45
2023/12/14 01:24:26;;;;;;;;;;;;;;;17.53;64.79;99727.72;7397865;19;1271;-45
2023/12/14 01:26:54;;;;;;;;;;;;;;;17.79;64.12;99734.00;7396199;19;1882;-45
2023/12/14 01:29:23;;;;;;;;;;;;;;;17.74;64.19;99736.28;7396576;19;1207;-45
2023/12/14 01:31:51;;;;;;;;;;;;;;;17.49;64.74;99736.06;7395836;19;1472;-45
2023/12/14 01:34:22;;;;;;;;;;;;;;;17.36;65.30;99722.19;7397514;19;1147;-45
2023/12/14 01:36:50;;;;;;;;;;;;;;;17.28;65.37;99706.09;7398129;19;1190;-45
2023/12/14 01:39:19;;;;;;;;;;;;;;;17.14;65.66;99704.75;7397049;19;1465;-45
2023/12/14 01:41:49;;;;;;;;;;;;;;;17.37;65.08;99726.56;7395552;19;1251;-45
2023/12/14 01:44:14;;;;;;;;;;;;;;;17.73;64.40;99710.56;7396279;19;1267;-45
2023/12/14 01:46:43;;;;;;;;;;;;;;;17.82;63.73;99708.78;7395100;19;2294;-45
2023/12/14 01:49:11;;;;;;;;;;;;;;;17.60;64.45;99707.41;7378123;19;1857;-45
2023/12/14 01:51:42;;;;;;;;;;;;;;;17.42;64.73;99718.94;7393432;19;2886;-46
2023/12/14 01:54:11;;;;;;;;;;;;;;;17.32;65.28;99711.97;7396349;19;1548;-45
2023/12/14 01:56:40;;;;;;;;;;;;;;;17.24;65.40;99710.06;7395528;19;1313;-45
2023/12/14 01:59:08;;;;;;;;;;;;;;;17.09;65.68;99721.25;7395221;19;1451;-45
2023/12/14 02:01:41;;;;;;;;;;;;;;;17.34;65.25;99708.16;7395628;19;1374;-45
2023/12/14 02:04:09;;;;;;;;;;;;;;;17.60;64.44;99713.59;7395036;19;1541;-45
2023/12/14 02:06:38;;;;;;;;;;;;;;;17.87;63.71;99712.72;7394649;19;1862;-45
2023/12/14 02:09:09;;;;;;;;;;;;;;;18.06;63.04;99708.19;7395575;19;1207;-45
2023/12/14 02:11:38;;;;;;;;;;;;;;;17.84;63.65;99715.69;7395129;19;1347;-45
2023/12/14 02:14:07;;;;;;;;;;;;;;;17.57;64.21;99710.41;7392695;19;1395;-45
2023/12/14 02:16:38;;;;;;;;;;;;;;;17.39;64.48;99713.03;7394671;19;1172;-45
2023/12/14 02:19:06;;;;;;;;;;;;;;;17.24;64.67;99713.56;7395453;19;1372;-45
2023/12/14 02:21:35;;;;;;;;;;;;;;;17.14;64.90;99711.94;7395289;19;1175;-45
2023/12/14 02:24:06;;;;;;;;;;;;;;;17.49;64.24;99685.28;7395303;19;1543;-46
2023/12/14 02:26:34;;;;;;;;;;;;;;;17.89;63.32;99688.50;7393948;19;1864;-45
2023/12/14 02:29:02;;;;;;;;;;;;;;;17.79;63.36;99675.19;7394318;19;1907;-45
2023/12/14 02:31:31;;;;;;;;;;;;;;;17.56;63.87;99706.03;7394467;19;1152;-46
2023/12/14 02:33:59;;;;;;;;;;;;;;;17.54;63.87;99708.03;7394592;19;1587;-45
2023/12/14 02:36:27;;;;;;;;;;;;;;;18.26;62.16;99701.66;7394866;19;1133;-45
2023/12/14 02:38:56;;;;;;;;;;;;;;;19.16;59.63;99687.91;7395304;19;1132;-45
2023/12/14 02:41:26;;;;;;;;;;;;;;;19.66;57.99;99681.66;7394981;19;1164;-45
2023/12/14 02:43:55;;;;;;;;;;;;;;;19.38;58.71;99682.97;7394409;19;1778;-45
2023/12/14 02:46:23;;;;;;;;;;;;;;;19.30;59.34;99680.22;7393368;19;1841;-45
2023/12/14 02:48:51;;;;;;;;;;;;;;;19.42;58.81;99690.50;7392166;19;1493;-45
2023/12/14 02:51:20;;;;;;;;;;;;;;;19.47;58.82;99698.03;7383785;19;1578;-45
2023/12/14 02:53:48;;;;;;;;;;;;;;;19.43;58.87;99707.41;7393780;19;1575;-45
2023/12/14 02:56:16;;;;;;;;;;;;;;;19.47;58.75;99692.69;7394029;19;1344;-45
2023/12/14 02:58:51;;;;;;;;;;;;;;;19.48;58.73;99697.88;7393380;19;1478;-45
2023/12/14 03:01:21;;;;;;;;;;;;;;;19.26;59.27;99702.03;7392917;19;1330;-45
2023/12/14 03:03:49;;;;;;;;;;;;;;;19.18;59.42;99698.47;7393685;19;1444;-45
2023/12/14 03:06:17;;;;;;;;;;;;;;;19.46;58.69;99686.47;7393151;19;1852;-45
2023/12/14 03:08:46;;;;;;;;;;;;;;;19.50;58.28;99689.69;7393833;19;1198;-45
2023/12/14 03:11:23;;;;;;;;;;;;;;;19.68;58.01;99693.03;7392897;19;1389;-46
2023/12/14 03:13:54;;;;;;;;;;;;;;;19.52;58.29;99689.50;7392612;19;1547;-45
2023/12/14 03:16:23;;;;;;;;;;;;;;;19.57;58.24;99703.25;7392770;19;1528;-45
2023/12/14 03:18:53;;;;;;;;;;;;;;;19.58;58.09;99694.22;7392142;19;1563;-45
2023/12/14 03:21:21;;;;;;;;;;;;;;;19.62;57.87;99714.34;7392714;19;1389;-45
2023/12/14 03:23:49;;;;;;;;;;;;;;;19.77;57.67;99699.28;7392927;19;1164;-45
2023/12/14 03:26:18;;;;;;;;;;;;;;;19.64;57.89;99706.97;7392933;19;1877;-46
2023/12/14 03:28:46;;;;;;;;;;;;;;;19.72;57.72;99696.28;7392241;19;1383;-45
2023/12/14 03:31:17;;;;;;;;;;;;;;;19.74;57.79;99709.53;7392264;19;1651;-45
2023/12/14 03:33:45;;;;;;;;;;;;;;;19.79;57.52;99709.84;7391645;19;1151;-45
2023/12/14 03:36:14;;;;;;;;;;;;;;;19.82;57.42;99704.16;7392404;19;1394;-45
2023/12/14 03:38:42;;;;;;;;;;;;;;;19.69;57.86;99707.28;7392469;19;1495;-45
2023/12/14 03:41:10;;;;;;;;;;;;;;;19.79;57.36;99674.97;7391828;19;1194;-45
2023/12/14 03:43:38;;;;;;;;;;;;;;;19.72;57.69;99684.72;7391217;19;1225;-45
2023/12/14 03:46:07;;;;;;;;;;;;;;;19.70;57.58;99686.69;7391619;19;1199;-45
2023/12/14 03:48:38;;;;;;;;;;;;;;;19.73;57.48;99689.88;7390855;19;1860;-54
2023/12/14 03:51:07;;;;;;;;;;;;;;;19.85;57.23;99679.66;7376846;19;1366;-45
2023/12/14 03:53:36;;;;;;;;;;;;;;;19.90;57.21;99690.75;7392359;19;1270;-45
2023/12/14 03:56:04;;;;;;;;;;;;;;;19.80;57.37;99690.91;7392719;19;1388;-45
2023/12/14 03:58:32;;;;;;;;;;;;;;;19.82;57.21;99685.38;7390857;19;1381;-45
2023/12/14 04:01:01;;;;;;;;;;;;;;;19.33;58.25;99688.78;7392552;19;1560;-46
2023/12/14 04:03:30;;;;;;;;;;;;;;;18.74;59.83;99677.16;7392961;19;2047;-45
2023/12/14 04:06:01;;;;;;;;;;;;;;;18.38;61.03;99683.53;7393249;19;1511;-45
2023/12/14 04:08:29;;;;;;;;;;;;;;;18.21;61.45;99703.13;7391639;19;1845;-45
2023/12/14 04:10:57;;;;;;;;;;;;;;;18.29;61.31;99693.31;7394084;19;1524;-45
2023/12/14 04:13:26;;;;;;;;;;;;;;;18.51;60.71;99687.59;7393095;19;1361;-45
2023/12/14 04:15:54;;;;;;;;;;;;;;;18.79;59.98;99690.91;7392009;19;1995;-45
2023/12/14 04:18:22;;;;;;;;;;;;;;;18.93;59.49;99676.94;7393238;19;1489;-45
2023/12/14 04:20:51;;;;;;;;;;;;;;;18.96;59.35;99673.97;7393185;19;1153;-46
2023/12/14 04:23:21;;;;;;;;;;;;;;;18.88;59.52;99681.97;7391862;19;1218;-46
2023/12/14 04:25:50;;;;;;;;;;;;;;;18.81;59.81;99691.63;7391944;19;1489;-45
2023/12/14 04:28:18;;;;;;;;;;;;;;;18.77;59.82;99675.00;7389839;19;1855;-45
2023/12/14 04:30:46;;;;;;;;;;;;;;;18.72;59.94;99703.25;7390745;19;1484;-45
2023/12/14 04:33:15;;;;;;;;;;;;;;;18.72;59.96;99692.53;7390454;19;1506;-45
2023/12/14 04:35:43;;;;;;;;;;;;;;;18.75;59.87;99686.88;7390765;19;1456;-45
2023/12/14 04:38:11;;;;;;;;;;;;;;;18.79;59.94;99666.81;7391228;19;1455;-46
2023/12/14 04:40:42;;;;;;;;;;;;;;;18.85;59.71;99661.69;7391795;19;1150;-45
2023/12/14 04:43:11;;;;;;;;;;;;;;;18.81;59.78;99660.31;7389014;19;1492;-45
2023/12/14 04:45:39;;;;;;;;;;;;;;;18.77;60.26;99669.66;7390852;19;1202;-45
2023/12/14 04:48:08;;;;;;;;;;;;;;;18.92;60.02;99666.38;7389948;19;1863;-45
2023/12/14 04:50:36;;;;;;;;;;;;;;;18.96;59.73;99671.28;7375691;19;1395;-45
2023/12/14 04:53:04;;;;;;;;;;;;;;;18.95;59.82;99653.50;7389494;19;1227;-48
2023/12/14 04:55:33;;;;;;;;;;;;;;;18.79;60.52;99664.13;6872835;19;10000279;-45
2023/12/14 04:58:03;;;;;;;;;;;;;;;18.80;60.82;99665.84;7389177;19;1433;-46
2023/12/14 05:00:32;;;;;;;;;;;;;;;18.80;60.79;99657.78;7390522;19;1385;-46
2023/12/14 05:03:00;;;;;;;;;;;;;;;18.97;60.24;99637.28;7389089;19;1374;-46
2023/12/14 05:05:28;;;;;;;;;;;;;;;19.00;59.97;99640.47;7391791;19;1499;-45
2023/12/14 05:07:57;;;;;;;;;;;;;;;19.13;59.66;99663.28;7387172;19;1864;-45
2023/12/14 05:10:25;;;;;;;;;;;;;;;19.11;59.53;99641.16;7395942;19;1476;-45
2023/12/14 05:12:53;;;;;;;;;;;;;;;19.14;59.54;99660.44;7393169;19;1546;-45
2023/12/14 05:15:24;;;;;;;;;;;;;;;19.13;59.16;99657.94;7396981;19;1336;-45
2023/12/14 05:17:52;;;;;;;;;;;;;;;19.12;59.81;99645.50;7397023;19;1192;-44
2023/12/14 05:20:21;;;;;;;;;;;;;;;19.18;59.48;99658.25;7396448;19;1218;-44
2023/12/14 05:22:49;;;;;;;;;;;;;;;19.23;59.29;99647.91;7389951;19;1501;-44
2023/12/14 05:25:17;;;;;;;;;;;;;;;19.26;59.00;99656.44;7395987;19;1570;-46
2023/12/14 05:27:46;;;;;;;;;;;;;;;19.31;58.83;99642.53;7393003;19;1853;-46
2023/12/14 05:30:14;;;;;;;;;;;;;;;19.27;58.86;99649.25;7397135;19;1554;-45
2023/12/14 05:32:46;;;;;;;;;;;;;;;19.26;59.14;99648.41;7396434;19;1351;-45
2023/12/14 05:35:14;;;;;;;;;;;;;;;19.24;59.07;99645.06;7396463;19;1556;-45
2023/12/14 05:37:43;;;;;;;;;;;;;;;19.33;58.75;99647.75;7396684;19;1394;-45
2023/12/14 05:40:12;;;;;;;;;;;;;;;19.31;58.89;99653.28;7397152;19;1172;-45
2023/12/14 05:42:40;;;;;;;;;;;;;;;19.34;58.72;99630.66;7396508;19;1254;-45
2023/12/14 05:45:10;;;;;;;;;;;;;;;19.23;58.82;99659.44;7395133;19;1741;-45
2023/12/14 05:47:38;;;;;;;;;;;;;;;19.26;58.71;99637.69;7396168;19;1870;-46
2023/12/14 05:50:10;;;;;;;;;;;;;;;19.28;58.34;99656.28;7382993;19;1126;-46
2023/12/14 05:52:40;;;;;;;;;;;;;;;19.26;58.62;99660.97;7395093;19;1507;-45
2023/12/14 05:55:10;;;;;;;;;;;;;;;19.31;58.22;99660.47;7394545;19;1330;-46
2023/12/14 05:57:38;;;;;;;;;;;;;;;19.12;57.40;99651.72;7393479;19;1228;-45
2023/12/14 06:00:08;;;;;;;;;;;;;;;19.08;57.72;99653.91;7396200;19;1806;-45
2023/12/14 06:02:37;;;;;;;;;;;;;;;19.17;57.66;99659.28;7392710;19;1479;-45
2023/12/14 06:05:05;;;;;;;;;;;;;;;19.26;57.55;99651.09;7395212;19;1543;-45
2023/12/14 06:07:37;;;;;;;;;;;;;;;19.29;57.43;99663.31;7395257;19;1846;-45
2023/12/14 06:10:06;;;;;;;;;;;;;;;19.28;57.70;99669.69;7396055;19;1199;-46
2023/12/14 06:12:34;;;;;;;;;;;;;;;19.29;57.67;99663.31;7394676;19;1187;-45
2023/12/14 06:15:02;;;;;;;;;;;;;;;19.32;57.54;99675.53;7391439;19;1270;-45
2023/12/14 06:17:31;;;;;;;;;;;;;;;19.34;57.60;99706.56;7391852;19;1513;-45
2023/12/14 06:20:00;;;;;;;;;;;;;;;19.18;57.56;99735.97;7391988;19;1535;-47
2023/12/14 06:22:28;;;;;;;;;;;;;;;19.15;57.64;99725.59;7381791;19;1559;-45
2023/12/14 06:24:59;;;;;;;;;;;;;;;19.25;57.66;99758.47;7393219;19;1176;-45
2023/12/14 06:27:28;;;;;;;;;;;;;;;18.99;58.12;99747.81;7390400;19;1849;-45
2023/12/14 06:29:56;;;;;;;;;;;;;;;18.56;58.97;99771.81;7393934;19;1492;-45
2023/12/14 06:32:24;;;;;;;;;;;;;;;18.23;59.69;99766.19;7394106;19;1249;-45
2023/12/14 06:34:53;;;;;;;;;;;;;;;18.01;60.53;99791.59;7394009;19;1607;-45
2023/12/14 06:37:21;;;;;;;;;;;;;;;17.86;61.16;99777.88;7394501;19;1538;-46
2023/12/14 06:39:49;;;;;;;;;;;;;;;17.89;60.98;99799.00;7393679;19;1061;-45
2023/12/14 06:42:21;;;;;;;;;;;;;;;18.35;59.82;99814.13;7392634;19;1602;-45
2023/12/14 06:44:49;;;;;;;;;;;;;;;18.84;58.62;99788.59;7392241;19;1464;-45
2023/12/14 06:47:17;;;;;;;;;;;;;;;19.11;57.96;99836.78;7392550;19;1241;-45
2023/12/14 06:49:46;;;;;;;;;;;;;;;19.13;57.81;99794.59;7393377;19;1498;-45
2023/12/14 06:52:14;;;;;;;;;;;;;;;19.14;57.61;99812.34;7378596;19;1220;-45
2023/12/14 06:54:42;;;;;;;;;;;;;;;19.15;57.74;99814.03;7393986;19;1053;-45
2023/12/14 06:57:10;;;;;;;;;;;;;;;19.15;57.67;99832.78;7393388;19;1112;-45
2023/12/14 06:59:41;;;;;;;;;;;;;;;19.19;57.42;99858.28;7392394;19;1511;-45
2023/12/14 07:02:10;;;;;;;;;;;;;;;18.81;58.49;99822.88;7392490;19;1533;-46
2023/12/14 07:04:38;;;;;;;;;;;;;;;18.38;59.67;99841.44;7389559;19;1942;-45
2023/12/14 07:07:06;;;;;;;;;;;;;;;18.06;60.41;99826.75;7392350;19;1159;-45
2023/12/14 07:09:35;;;;;;;;;;;;;;;17.89;60.77;99844.47;7390824;19;1867;-45
2023/12/14 07:12:03;;;;;;;;;;;;;;;17.78;61.23;99849.16;7391902;19;1530;-45
2023/12/14 07:14:32;;;;;;;;;;;;;;;18.13;60.58;99875.16;7390300;19;1479;-45
2023/12/14 07:17:02;;;;;;;;;;;;;;;18.55;59.41;99874.53;7390004;19;1858;-45
2023/12/14 07:19:31;;;;;;;;;;;;;;;18.94;58.23;99879.56;7391960;19;1560;-45
2023/12/14 07:22:00;;;;;;;;;;;;;;;19.05;58.06;99906.09;7389713;19;1385;-45
2023/12/14 07:24:28;;;;;;;;;;;;;;;19.16;57.70;99917.53;7392340;19;1168;-45
2023/12/14 07:26:56;;;;;;;;;;;;;;;19.13;57.90;99920.56;7392212;19;1262;-45
2023/12/14 07:29:25;;;;;;;;;;;;;;;19.13;57.59;99928.59;7390948;19;1849;-45
2023/12/14 07:31:53;;;;;;;;;;;;;;;19.23;57.47;99910.56;7390904;19;1491;-46
2023/12/14 07:34:24;;;;;;;;;;;;;;;18.95;58.29;99908.03;7390797;19;1520;-46
2023/12/14 07:36:53;;;;;;;;;;;;;;;18.47;59.33;99903.91;7390719;19;1376;-45
2023/12/14 07:39:21;;;;;;;;;;;;;;;18.13;60.40;99927.81;7392490;19;1243;-45
2023/12/14 07:41:50;;;;;;;;;;;;;;;17.88;61.00;99917.66;7390742;19;1186;-45
2023/12/14 07:44:18;;;;;;;;;;;;;;;17.76;61.11;99921.50;7391574;19;1622;-45
2023/12/14 07:46:46;;;;;;;;;;;;;;;18.06;60.67;99916.84;7391830;19;1089;-45
2023/12/14 07:49:14;;;;;;;;;;;;;;;18.61;59.09;99908.72;7389103;19;2459;-45
2023/12/14 07:51:45;;;;;;;;;;;;;;;18.83;58.94;99909.28;7375409;19;1506;-45
2023/12/14 07:54:14;;;;;;;;;;;;;;;18.97;58.59;99911.38;7390954;19;1503;-45
2023/12/14 07:56:42;;;;;;;;;;;;;;;19.01;58.63;99907.41;7390587;19;1212;-45
2023/12/14 07:59:10;;;;;;;;;;;;;;;19.06;58.53;99925.69;7392059;19;1529;-45
2023/12/14 08:01:39;;;;;;;;;;;;;;;19.08;58.48;99950.50;7390669;19;1258;-45
2023/12/14 08:04:07;;;;;;;;;;;;;;;19.03;58.56;99926.84;7390103;19;1419;-45
2023/12/14 08:06:36;;;;;;;;;;;;;;;19.04;58.56;99941.09;7388535;19;1324;-45
2023/12/14 08:09:07;;;;;;;;;;;;;;;18.98;58.91;99947.06;7387259;19;1879;-45
2023/12/14 08:11:35;;;;;;;;;;;;;;;18.61;59.62;99942.69;7392243;19;1488;-45
2023/12/14 08:14:04;;;;;;;;;;;;;;;18.28;60.46;99937.88;7388884;19;1398;-46
2023/12/14 08:16:32;;;;;;;;;;;;;;;18.05;61.24;99928.56;7388998;19;1436;-45
2023/12/14 08:19:00;;;;;;;;;;;;;;;17.96;61.59;99934.81;7388388;19;1179;-45
2023/12/14 08:21:29;;;;;;;;;;;;;;;17.98;61.34;99911.41;7391042;19;1778;-45
2023/12/14 08:23:57;;;;;;;;;;;;;;;18.54;60.26;99904.13;7390307;19;1108;-45
2023/12/14 08:26:28;;;;;;;;;;;;;;;19.01;58.64;99887.81;7387597;19;1183;-45
2023/12/14 08:28:57;;;;;;;;;;;;;;;18.74;59.46;99905.66;7382626;19;1864;-45
2023/12/14 08:31:26;;;;;;;;;;;;;;;18.38;60.39;99911.03;7389586;19;1218;-45
2023/12/14 08:33:54;;;;;;;;;;;;;;;18.09;60.97;99901.34;7388619;19;1436;-45
2023/12/14 08:36:23;;;;;;;;;;;;;;;17.89;61.66;99913.16;7387562;19;1402;-45
2023/12/14 08:38:51;;;;;;;;;;;;;;;17.99;61.50;99964.78;7387092;19;1199;-45
2023/12/14 08:41:19;;;;;;;;;;;;;;;18.52;60.03;99965.84;7386303;19;1966;-45
2023/12/14 08:43:50;;;;;;;;;;;;;;;19.04;58.84;99978.63;7387628;19;1213;-45
2023/12/14 08:46:19;;;;;;;;;;;;;;;18.78;59.25;99995.44;7385781;19;1289;-45
2023/12/14 08:48:47;;;;;;;;;;;;;;;18.33;60.30;99974.03;7387008;19;1863;-45
2023/12/14 08:51:15;;;;;;;;;;;;;;;18.03;61.01;99981.38;7375097;19;1454;-45
2023/12/14 08:53:44;;;;;;;;;;;;;;;17.82;61.48;100001.13;7388142;19;1338;-45
2023/12/14 08:56:12;;;;;;;;;;;;;;;18.15;60.81;100009.63;7387056;19;1486;-45
2023/12/14 08:58:41;;;;;;;;;;;;;;;18.69;59.23;100021.28;7389226;19;1111;-45
2023/12/14 09:01:12;;;;;;;;;;;;;;;19.03;58.40;100034.03;7387933;19;1395;-46
2023/12/14 09:03:40;;;;;;;;;;;;;;;18.60;59.32;100024.88;7388577;19;1164;-45
2023/12/14 09:06:08;;;;;;;;;;;;;;;18.23;60.20;100038.31;7387104;19;1567;-45
2023/12/14 09:08:37;;;;;;;;;;;;;;;17.90;61.38;100021.81;7388462;19;1861;-45
2023/12/14 09:11:05;;;;;;;;;;;;;;;17.80;61.43;100053.91;7388654;19;1505;-45
2023/12/14 09:13:33;;;;;;;;;;;;;;;18.18;60.48;100054.81;7387300;19;1173;-45
2023/12/14 09:16:02;;;;;;;;;;;;;;;18.73;58.96;100042.41;7386150;19;1480;-45
2023/12/14 09:18:32;;;;;;;;;;;;;;;19.03;58.10;100025.97;7387592;19;1263;-45
2023/12/14 09:21:01;;;;;;;;;;;;;;;19.18;57.94;100017.38;7389361;19;1453;-45
2023/12/14 09:23:29;;;;;;;;;;;;;;;18.81;58.60;100034.47;7387093;19;1275;-45
2023/12/14 09:25:58;;;;;;;;;;;;;;;18.32;59.97;100029.38;7385858;19;1467;-45
2023/12/14 09:28:27;;;;;;;;;;;;;;;18.02;60.40;100025.16;7388164;19;1861;-46
2023/12/14 09:30:55;;;;;;;;;;;;;;;17.82;61.04;100017.16;7387247;19;1377;-45
2023/12/14 09:33:23;;;;;;;;;;;;;;;18.11;60.54;100010.91;7387344;19;1241;-45
2023/12/14 09:35:54;;;;;;;;;;;;;;;18.66;59.13;100013.56;7386676;19;1536;-45
2023/12/14 09:38:23;;;;;;;;;;;;;;;19.14;57.71;100019.56;7387589;19;1233;-45
2023/12/14 09:40:51;;;;;;;;;;;;;;;19.07;57.91;100024.66;7391792;19;1258;-45
2023/12/14 09:43:20;;;;;;;;;;;;;;;18.64;58.90;100007.50;7396432;19;1551;-45
2023/12/14 09:45:50;;;;;;;;;;;;;;;18.25;59.80;100031.81;7395333;19;1329;-45
2023/12/14 09:48:19;;;;;;;;;;;;;;;17.97;60.58;100035.47;7394517;19;1298;-45
2023/12/14 09:50:48;;;;;;;;;;;;;;;17.81;61.10;100015.50;7389219;19;1238;-45
2023/12/14 09:53:19;;;;;;;;;;;;;;;18.29;59.80;100040.41;7394654;19;1659;-45
2023/12/14 09:55:47;;;;;;;;;;;;;;;18.87;58.45;100047.25;7395335;19;1500;-45
2023/12/14 09:58:16;;;;;;;;;;;;;;;18.96;58.14;100057.06;7394679;19;1444;-45
2023/12/14 10:00:44;;;;;;;;;;;;;;;18.54;58.96;100052.22;7393613;19;1409;-45
2023/12/14 10:03:23;;;;;;;;;;;;;;;18.16;60.03;100054.09;7395368;19;1431;-45
2023/12/14 10:05:52;;;;;;;;;;;;;;;17.85;60.60;100075.78;7395080;19;1410;-45
2023/12/14 10:08:23;;;;;;;;;;;;;;;17.79;61.09;100064.78;7393253;19;1283;-45
2023/12/14 10:10:52;;;;;;;;;;;;;;;18.35;59.52;100053.19;7393798;19;1830;-45
2023/12/14 10:13:21;;;;;;;;;;;;;;;18.92;58.16;100030.72;7395479;19;1500;-45
2023/12/14 10:15:51;;;;;;;;;;;;;;;19.00;57.88;100057.59;7395361;19;1623;-45
2023/12/14 10:18:24;;;;;;;;;;;;;;;18.56;58.91;100069.00;7394632;19;1488;-45
2023/12/14 10:20:53;;;;;;;;;;;;;;;18.17;60.14;100085.25;7395295;19;1184;-45
2023/12/14 10:23:24;;;;;;;;;;;;;;;17.99;61.13;100050.38;7393381;19;1183;-46
2023/12/14 10:25:52;;;;;;;;;;;;;;;17.96;61.38;100039.13;7394418;19;1303;-45
2023/12/14 10:28:20;;;;;;;;;;;;;;;18.59;59.67;100046.44;7394721;19;1467;-45
2023/12/14 10:30:48;;;;;;;;;;;;;;;19.04;58.64;100051.78;7392466;19;1850;-45
2023/12/14 10:33:17;;;;;;;;;;;;;;;18.79;59.08;100041.78;7394388;19;1325;-45
2023/12/14 10:35:47;;;;;;;;;;;;;;;18.42;60.28;100032.00;7394807;19;1617;-45
2023/12/14 10:38:17;;;;;;;;;;;;;;;18.09;61.08;100045.84;7394585;19;1219;-45
2023/12/14 10:40:49;;;;;;;;;;;;;;;17.83;62.02;100040.31;7396297;19;1238;-45
2023/12/14 10:43:18;;;;;;;;;;;;;;;18.00;61.51;100024.47;7395304;19;1568;-45
2023/12/14 10:45:49;;;;;;;;;;;;;;;18.44;60.32;100035.38;7394198;19;1176;-45
2023/12/14 10:48:20;;;;;;;;;;;;;;;18.85;59.21;100047.41;7394538;19;1187;-45
2023/12/14 10:50:49;;;;;;;;;;;;;;;19.08;58.85;100050.50;7392295;19;1851;-45
2023/12/14 10:53:17;;;;;;;;;;;;;;;18.94;58.98;100051.03;7379970;19;1568;-50
2023/12/14 10:55:47;;;;;;;;;;;;;;;18.51;60.04;100063.25;7394497;19;1242;-45
2023/12/14 10:58:18;;;;;;;;;;;;;;;18.16;60.83;100075.50;7394487;19;1480;-45
2023/12/14 11:00:46;;;;;;;;;;;;;;;17.93;61.48;100074.22;7389981;19;2336;-45
2023/12/14 11:03:17;;;;;;;;;;;;;;;17.99;61.36;100068.28;7393414;19;1156;-45
2023/12/14 11:05:45;;;;;;;;;;;;;;;18.56;59.91;100069.00;7392873;19;1340;-45
2023/12/14 11:08:14;;;;;;;;;;;;;;;19.01;58.49;100089.59;7392501;19;1497;-45
2023/12/14 11:10:43;;;;;;;;;;;;;;;18.72;59.14;100083.56;7391079;19;1883;-45
2023/12/14 11:13:13;;;;;;;;;;;;;;;18.25;60.20;100066.63;7392918;19;1323;-45
2023/12/14 11:15:50;;;;;;;;;;;;;;;17.97;61.20;100060.38;7391627;19;1487;-49
2023/12/14 11:18:26;;;;;;;;;;;;;;;17.84;61.22;100063.38;7391679;19;1291;-46
2023/12/14 11:20:56;;;;;;;;;;;;;;;18.31;60.28;100054.47;7392827;19;1237;-48
2023/12/14 11:23:45;;;;;;;;;;;;;;;18.88;58.51;100051.66;7389960;19;2028;-46
2023/12/14 11:26:13;;;;;;;;;;;;;;;19.13;57.83;100036.63;7390615;19;1289;-45
2023/12/14 11:28:43;;;;;;;;;;;;;;;19.24;57.69;100051.63;7391874;19;2110;-45
2023/12/14 11:31:15;;;;;;;;;;;;;;;19.19;57.67;100070.00;7391342;19;1887;-45
2023/12/14 11:33:44;;;;;;;;;;;;;;;19.16;57.65;100060.44;7392680;19;1353;-45
2023/12/14 11:36:13;;;;;;;;;;;;;;;19.19;57.72;100070.84;7392583;19;1262;-45
2023/12/14 11:38:41;;;;;;;;;;;;;;;19.32;57.72;100069.59;7391022;19;1501;-46
2023/12/14 11:41:10;;;;;;;;;;;;;;;19.31;57.57;100074.13;7391479;19;1744;-48
2023/12/14 11:43:41;;;;;;;;;;;;;;;19.03;58.19;100081.41;7391322;19;1168;-46
2023/12/14 11:46:10;;;;;;;;;;;;;;;18.59;59.20;100079.41;7389530;19;1186;-45
2023/12/14 11:48:41;;;;;;;;;;;;;;;18.25;60.11;100074.63;7388682;19;1236;-45
2023/12/14 11:51:09;;;;;;;;;;;;;;;18.02;60.85;100070.66;7388935;19;1838;-45
2023/12/14 11:53:38;;;;;;;;;;;;;;;17.91;61.50;100084.22;7377681;19;1268;-47
2023/12/14 11:56:07;;;;;;;;;;;;;;;18.39;59.79;100080.50;7389997;19;1424;-45
2023/12/14 11:58:36;;;;;;;;;;;;;;;18.92;58.47;100082.50;7391405;19;1546;-45
2023/12/14 12:01:14;;;;;;;;;;;;;;;19.06;58.38;100079.28;7387814;19;1835;-45
2023/12/14 12:03:46;;;;;;;;;;;;;;;19.08;58.07;100089.84;7388102;19;1571;-45
2023/12/14 12:06:22;;;;;;;;;;;;;;;18.64;59.15;100093.19;7390872;19;1521;-45
2023/12/14 12:08:50;;;;;;;;;;;;;;;18.20;60.30;100078.75;7390327;19;2880;-45
2023/12/14 12:11:19;;;;;;;;;;;;;;;17.98;60.90;100077.28;7390587;19;1856;-45
2023/12/14 12:13:52;;;;;;;;;;;;;;;17.90;61.30;100094.03;7392068;19;1532;-46
2023/12/14 12:16:20;;;;;;;;;;;;;;;18.58;59.32;100099.16;7389659;19;1217;-45
2023/12/14 12:18:53;;;;;;;;;;;;;;;18.90;58.50;100088.97;7392170;19;1659;-49
2023/12/14 12:21:21;;;;;;;;;;;;;;;19.18;57.91;100084.38;7391873;19;1477;-45
2023/12/14 12:23:49;;;;;;;;;;;;;;;18.80;58.58;100097.06;7390634;19;1578;-45
2023/12/14 12:26:18;;;;;;;;;;;;;;;18.34;59.70;100106.88;7391505;19;1223;-48
2023/12/14 12:28:47;;;;;;;;;;;;;;;18.03;60.46;100118.66;7392331;19;1186;-45
2023/12/14 12:31:16;;;;;;;;;;;;;;;17.85;61.03;100107.03;7388166;19;1830;-45
2023/12/14 12:33:44;;;;;;;;;;;;;;;18.35;60.03;100114.75;7389842;19;1222;-45
2023/12/14 12:36:15;;;;;;;;;;;;;;;18.73;58.84;100120.91;7391207;19;1114;-45
2023/12/14 12:38:43;;;;;;;;;;;;;;;19.07;58.09;100123.81;7390606;19;1186;-45
2023/12/14 12:41:12;;;;;;;;;;;;;;;18.93;58.05;100120.84;7389077;19;1503;-45
2023/12/14 12:43:40;;;;;;;;;;;;;;;18.44;59.46;100134.44;7387090;19;1488;-45
2023/12/14 12:46:08;;;;;;;;;;;;;;;18.11;60.60;100131.31;7389154;19;1106;-45
2023/12/14 12:48:37;;;;;;;;;;;;;;;17.88;60.78;100120.94;7388889;19;1520;-45
2023/12/14 12:51:05;;;;;;;;;;;;;;;18.16;60.25;100121.00;7387790;19;1858;-45
2023/12/14 12:53:36;;;;;;;;;;;;;;;18.71;58.87;100108.66;7373602;19;1183;-45
2023/12/14 12:56:05;;;;;;;;;;;;;;;18.90;58.17;100110.41;7389889;19;1524;-48
2023/12/14 12:58:33;;;;;;;;;;;;;;;18.93;58.04;100105.59;7388707;19;1066;-45
2023/12/14 13:01:01;;;;;;;;;;;;;;;18.52;59.05;100126.50;7388616;19;1492;-45